createdAt,value
2017-03-20T00:00:27.678Z,9.80
2017-03-20T00:01:27.729Z,10.20
2017-03-20T00:02:28.673Z,10.10
2017-03-20T00:03:28.688Z,10.00
2017-03-20T00:04:28.702Z,9.80
2017-03-20T00:05:28.732Z,10.10
2017-03-20T00:06:28.780Z,10.30
2017-03-20T00:07:28.789Z,9.90
2017-03-20T00:08:28.793Z,9.80
2017-03-20T00:09:29.311Z,9.90
2017-03-20T00:10:29.342Z,9.90
2017-03-20T00:11:30.100Z,9.70
2017-03-20T00:12:30.124Z,9.80
2017-03-20T00:13:30.234Z,9.90
2017-03-20T00:14:30.192Z,9.80
2017-03-20T00:15:30.193Z,9.80
2017-03-20T00:16:30.228Z,9.70
2017-03-20T00:17:30.232Z,9.80
2017-03-20T00:18:30.273Z,9.90
2017-03-20T00:19:30.329Z,9.80
2017-03-20T00:20:30.365Z,9.90
2017-03-20T00:21:30.929Z,9.80
2017-03-20T00:22:31.309Z,9.80
2017-03-20T00:23:31.315Z,9.80
2017-03-20T00:24:31.495Z,9.80
2017-03-20T00:25:31.485Z,9.80
2017-03-20T00:26:31.529Z,9.90
2017-03-20T00:27:31.578Z,9.70
2017-03-20T00:28:31.689Z,9.90
2017-03-20T00:29:31.748Z,10.00
2017-03-20T00:30:31.764Z,10.00
2017-03-20T00:31:31.753Z,9.90
2017-03-20T00:32:31.851Z,9.80
2017-03-20T00:33:31.890Z,9.80
2017-03-20T00:34:31.980Z,9.80
2017-03-20T00:35:31.998Z,9.80
2017-03-20T00:36:32.069Z,9.80
2017-03-20T00:37:32.121Z,9.80
2017-03-20T00:38:32.732Z,9.90
2017-03-20T00:39:32.698Z,9.80
2017-03-20T00:40:32.691Z,9.80
2017-03-20T00:41:32.689Z,9.90
2017-03-20T00:42:32.693Z,9.70
2017-03-20T00:43:32.727Z,9.80
2017-03-20T00:44:32.716Z,9.80
2017-03-20T00:45:32.704Z,9.90
2017-03-20T00:46:33.307Z,9.80
2017-03-20T00:47:33.391Z,9.90
2017-03-20T00:48:34.136Z,9.80
2017-03-20T00:49:34.137Z,9.80
2017-03-20T00:50:34.149Z,9.70
2017-03-20T00:51:34.139Z,9.80
2017-03-20T00:52:34.128Z,9.80
2017-03-20T00:53:34.886Z,9.80
2017-03-20T00:54:34.868Z,9.70
2017-03-20T00:55:34.861Z,9.80
2017-03-20T00:56:35.565Z,9.80
2017-03-20T00:57:35.574Z,9.70
2017-03-20T00:58:35.598Z,9.70
2017-03-20T00:59:35.534Z,9.80
2017-03-20T01:00:35.597Z,9.50
2017-03-20T01:01:35.675Z,9.80
2017-03-20T01:02:35.658Z,10.00
2017-03-20T01:03:35.670Z,9.80
2017-03-20T01:04:35.629Z,9.80
2017-03-20T01:05:35.618Z,9.80
2017-03-20T01:06:35.589Z,9.80
2017-03-20T01:07:35.643Z,9.70
2017-03-20T01:08:35.722Z,9.80
2017-03-20T01:09:35.689Z,9.90
2017-03-20T01:10:35.655Z,9.90
2017-03-20T01:11:36.206Z,9.80
2017-03-20T01:12:36.237Z,9.90
2017-03-20T01:13:36.210Z,9.70
2017-03-20T01:14:36.929Z,9.80
2017-03-20T01:15:36.933Z,9.80
2017-03-20T01:16:36.893Z,10.00
2017-03-20T01:17:36.878Z,9.90
2017-03-20T01:18:36.856Z,9.70
2017-03-20T01:19:36.836Z,9.80
2017-03-20T01:20:37.580Z,9.80
2017-03-20T01:21:37.584Z,9.90
2017-03-20T01:22:37.631Z,9.80
2017-03-20T01:23:37.634Z,9.80
2017-03-20T01:24:46.882Z,9.80
2017-03-20T01:25:57.252Z,9.80
2017-03-20T01:26:57.218Z,9.80
2017-03-20T01:27:57.177Z,9.80
2017-03-20T01:28:57.144Z,9.90
2017-03-20T01:29:57.157Z,9.60
2017-03-20T01:30:57.169Z,9.80
2017-03-20T01:31:57.153Z,9.80
2017-03-20T01:32:57.186Z,9.70
2017-03-20T01:33:57.173Z,9.70
2017-03-20T01:34:57.194Z,9.70
2017-03-20T01:35:57.124Z,9.90
2017-03-20T01:36:57.129Z,9.90
2017-03-20T01:37:57.106Z,9.70
2017-03-20T01:38:57.077Z,9.70
2017-03-20T01:39:57.054Z,9.90
2017-03-20T01:40:57.057Z,9.80
2017-03-20T01:41:57.016Z,9.80
2017-03-20T01:42:56.988Z,9.90
2017-03-20T01:43:56.956Z,9.70
2017-03-20T01:44:56.969Z,9.90
2017-03-20T01:45:57.038Z,9.80
2017-03-20T01:46:56.981Z,9.80
2017-03-20T01:47:56.970Z,9.80
2017-03-20T01:48:56.942Z,9.70
2017-03-20T01:49:56.908Z,9.80
2017-03-20T01:50:58.394Z,9.80
2017-03-20T01:51:58.334Z,9.70
2017-03-20T01:52:58.399Z,9.90
2017-03-20T01:53:58.345Z,9.80
2017-03-20T01:54:58.389Z,9.80
2017-03-20T01:55:58.430Z,9.80
2017-03-20T01:56:58.406Z,9.70
2017-03-20T01:57:59.046Z,9.70
2017-03-20T01:58:58.986Z,9.70
2017-03-20T01:59:58.989Z,9.70
2017-03-20T02:00:59.613Z,9.90
2017-03-20T02:01:59.600Z,9.70
2017-03-20T02:02:59.610Z,9.80
2017-03-20T02:03:59.567Z,9.90
2017-03-20T02:05:59.751Z,9.70
2017-03-20T02:06:59.762Z,9.70
2017-03-20T02:07:59.875Z,9.80
2017-03-20T02:08:59.817Z,9.80
2017-03-20T02:09:59.837Z,9.60
2017-03-20T02:11:00.520Z,9.70
2017-03-20T02:12:00.487Z,9.90
2017-03-20T02:13:00.501Z,9.70
2017-03-20T02:14:00.462Z,9.90
2017-03-20T02:15:01.189Z,10.00
2017-03-20T02:16:01.158Z,9.70
2017-03-20T02:17:01.157Z,9.80
2017-03-20T02:18:01.129Z,9.80
2017-03-20T02:19:01.820Z,9.70
2017-03-20T02:20:01.762Z,9.90
2017-03-20T02:21:01.733Z,9.80
2017-03-20T02:22:02.459Z,9.70
2017-03-20T02:23:02.458Z,10.00
2017-03-20T02:24:02.419Z,9.90
2017-03-20T02:25:02.401Z,9.80
2017-03-20T02:26:02.377Z,9.90
2017-03-20T02:27:03.078Z,9.80
2017-03-20T02:28:03.085Z,9.80
2017-03-20T02:29:03.689Z,9.70
2017-03-20T02:30:03.674Z,9.80
2017-03-20T02:31:03.736Z,9.80
2017-03-20T02:32:03.781Z,9.90
2017-03-20T02:33:03.810Z,9.90
2017-03-20T02:34:03.899Z,9.90
2017-03-20T02:35:04.668Z,9.80
2017-03-20T02:36:04.676Z,9.80
2017-03-20T02:37:04.669Z,9.90
2017-03-20T02:38:04.673Z,9.80
2017-03-20T02:39:04.758Z,9.90
2017-03-20T02:40:04.742Z,9.70
2017-03-20T02:41:05.455Z,9.80
2017-03-20T02:42:05.454Z,9.90
2017-03-20T02:43:05.421Z,9.80
2017-03-20T02:44:05.437Z,9.90
2017-03-20T02:45:05.405Z,9.90
2017-03-20T02:46:05.473Z,9.80
2017-03-20T02:47:05.434Z,9.80
2017-03-20T02:48:05.454Z,9.90
2017-03-20T02:49:05.466Z,9.90
2017-03-20T02:50:05.452Z,9.90
2017-03-20T02:51:05.554Z,9.80
2017-03-20T02:52:05.537Z,10.10
2017-03-20T02:53:05.503Z,9.80
2017-03-20T02:54:05.538Z,9.90
2017-03-20T02:55:05.522Z,9.70
2017-03-20T02:56:05.679Z,10.20
2017-03-20T02:57:05.679Z,9.80
2017-03-20T02:58:05.640Z,9.90
2017-03-20T02:59:05.605Z,10.20
2017-03-20T03:00:05.659Z,10.10
2017-03-20T03:01:05.669Z,10.10
2017-03-20T03:02:05.720Z,10.00
2017-03-20T03:03:05.718Z,9.90
2017-03-20T03:04:05.749Z,9.90
2017-03-20T03:05:05.765Z,10.20
2017-03-20T03:06:05.809Z,9.80
2017-03-20T03:07:05.820Z,9.90
2017-03-20T03:08:05.831Z,10.20
2017-03-20T03:09:06.593Z,9.90
2017-03-20T03:10:06.614Z,9.90
2017-03-20T03:11:07.308Z,9.90
2017-03-20T03:12:08.021Z,9.70
2017-03-20T03:13:08.747Z,9.80
2017-03-20T03:14:08.739Z,9.80
2017-03-20T03:15:08.765Z,10.00
2017-03-20T03:16:09.577Z,9.80
2017-03-20T03:17:09.524Z,9.80
2017-03-20T03:18:09.511Z,9.70
2017-03-20T03:19:09.479Z,9.90
2017-03-20T03:20:09.501Z,9.90
2017-03-20T03:21:09.501Z,9.80
2017-03-20T03:22:09.504Z,10.00
2017-03-20T03:23:09.494Z,9.80
2017-03-20T03:24:09.513Z,9.80
2017-03-20T03:25:09.528Z,9.70
2017-03-20T03:26:09.617Z,9.80
2017-03-20T03:27:09.601Z,9.80
2017-03-20T03:28:09.588Z,9.70
2017-03-20T03:29:09.579Z,9.80
2017-03-20T03:30:09.568Z,9.90
2017-03-20T03:31:09.580Z,9.80
2017-03-20T03:32:09.549Z,9.80
2017-03-20T03:33:09.513Z,9.90
2017-03-20T03:34:09.481Z,10.00
2017-03-20T03:35:09.487Z,9.80
2017-03-20T03:36:09.483Z,9.80
2017-03-20T03:37:09.493Z,9.90
2017-03-20T03:38:09.507Z,9.80
2017-03-20T03:39:09.480Z,9.80
2017-03-20T03:40:09.447Z,9.90
2017-03-20T03:41:10.212Z,9.90
2017-03-20T03:42:10.197Z,9.90
2017-03-20T03:43:10.206Z,9.80
2017-03-20T03:44:10.174Z,9.90
2017-03-20T03:45:10.189Z,9.70
2017-03-20T03:46:10.226Z,9.80
2017-03-20T03:47:10.253Z,9.70
2017-03-20T03:48:10.231Z,9.90
2017-03-20T03:49:10.220Z,9.80
2017-03-20T03:50:10.217Z,9.90
2017-03-20T03:51:10.213Z,9.90
2017-03-20T03:52:10.968Z,9.80
2017-03-20T03:53:11.721Z,9.70
2017-03-20T03:54:11.726Z,9.80
2017-03-20T03:55:11.698Z,9.90
2017-03-20T03:56:11.685Z,9.80
2017-03-20T03:57:11.687Z,9.70
2017-03-20T03:58:11.669Z,9.80
2017-03-20T03:59:11.688Z,9.90
2017-03-20T04:00:11.684Z,9.80
2017-03-20T04:01:11.668Z,9.70
2017-03-20T04:02:11.667Z,9.90
2017-03-20T04:03:11.686Z,9.80
2017-03-20T04:04:11.706Z,9.70
2017-03-20T04:05:11.691Z,9.90
2017-03-20T04:06:11.622Z,9.70
2017-03-20T04:07:11.586Z,9.70
2017-03-20T04:08:11.552Z,9.80
2017-03-20T04:09:11.484Z,9.90
2017-03-20T04:10:11.433Z,9.90
2017-03-20T04:11:11.388Z,9.70
2017-03-20T04:12:12.081Z,9.60
2017-03-20T04:13:12.031Z,9.60
2017-03-20T04:14:11.994Z,9.70
2017-03-20T04:15:12.085Z,9.70
2017-03-20T04:16:13.752Z,9.70
2017-03-20T04:17:13.694Z,9.70
2017-03-20T04:18:13.921Z,9.80
2017-03-20T04:19:13.880Z,9.80
2017-03-20T04:20:13.859Z,9.90
2017-03-20T04:21:14.555Z,9.90
2017-03-20T04:22:14.514Z,9.90
2017-03-20T04:23:15.322Z,9.80
2017-03-20T04:24:15.254Z,9.70
2017-03-20T04:25:15.965Z,9.70
2017-03-20T04:26:21.754Z,9.70
2017-03-20T04:27:37.250Z,9.90
2017-03-20T04:28:45.246Z,9.80
2017-03-20T04:29:45.188Z,9.80
2017-03-20T04:30:45.904Z,9.80
2017-03-20T04:31:45.821Z,9.50
2017-03-20T04:32:45.813Z,9.80
2017-03-20T04:33:45.813Z,9.70
2017-03-20T04:34:45.770Z,9.90
2017-03-20T04:35:45.742Z,9.80
2017-03-20T04:36:45.713Z,9.80
2017-03-20T04:37:45.650Z,9.90
2017-03-20T04:38:46.374Z,9.60
2017-03-20T04:39:46.315Z,9.80
2017-03-20T04:40:46.247Z,9.60
2017-03-20T04:41:46.226Z,9.70
2017-03-20T04:42:46.199Z,9.70
2017-03-20T04:43:46.174Z,9.90
2017-03-20T04:44:46.146Z,9.80
2017-03-20T04:45:46.123Z,9.80
2017-03-20T04:46:46.602Z,9.70
2017-03-20T04:47:46.546Z,9.80
2017-03-20T04:48:47.329Z,9.80
2017-03-20T04:49:47.389Z,9.80
2017-03-20T04:50:47.377Z,9.90
2017-03-20T04:51:47.371Z,9.90
2017-03-20T04:52:47.443Z,9.50
2017-03-20T04:53:47.399Z,9.70
2017-03-20T04:54:47.378Z,9.90
2017-03-20T04:55:47.338Z,9.80
2017-03-20T04:56:47.312Z,9.60
2017-03-20T04:57:47.238Z,9.80
2017-03-20T04:58:50.118Z,9.80
2017-03-20T04:59:50.098Z,9.80
2017-03-20T05:00:50.074Z,9.70
2017-03-20T05:01:50.034Z,9.60
2017-03-20T05:02:50.040Z,9.70
2017-03-20T05:03:50.014Z,9.80
2017-03-20T05:04:50.019Z,9.80
2017-03-20T05:05:50.126Z,9.80
2017-03-20T05:06:50.121Z,9.70
2017-03-20T05:07:50.088Z,9.80
2017-03-20T05:08:50.044Z,9.70
2017-03-20T05:09:50.028Z,9.80
2017-03-20T05:10:49.971Z,9.80
2017-03-20T05:11:49.932Z,9.60
2017-03-20T05:12:49.927Z,9.40
2017-03-20T05:13:49.935Z,9.50
2017-03-20T05:14:49.935Z,9.80
2017-03-20T05:15:49.965Z,9.40
2017-03-20T05:16:49.954Z,9.50
2017-03-20T05:17:49.940Z,9.50
2017-03-20T05:18:49.917Z,9.50
2017-03-20T05:19:49.986Z,9.60
2017-03-20T05:20:50.030Z,9.60
2017-03-20T05:21:49.999Z,9.60
2017-03-20T05:22:50.022Z,9.50
2017-03-20T05:23:50.022Z,9.50
2017-03-20T05:24:50.048Z,9.60
2017-03-20T05:25:50.026Z,9.80
2017-03-20T05:26:50.019Z,9.40
2017-03-20T05:27:49.990Z,9.60
2017-03-20T05:28:50.768Z,9.50
2017-03-20T05:29:50.851Z,9.50
2017-03-20T05:30:50.858Z,9.60
2017-03-20T05:31:50.905Z,9.70
2017-03-20T05:32:50.844Z,9.50
2017-03-20T05:33:50.831Z,9.50
2017-03-20T05:34:50.816Z,9.50
2017-03-20T05:35:51.152Z,9.30
2017-03-20T05:36:51.870Z,9.80
2017-03-20T05:37:52.214Z,9.80
2017-03-20T05:38:52.209Z,9.80
2017-03-20T05:39:52.287Z,9.60
2017-03-20T05:40:52.283Z,9.50
2017-03-20T05:41:52.358Z,9.50
2017-03-20T05:42:52.441Z,9.30
2017-03-20T05:43:52.450Z,9.70
2017-03-20T05:44:53.491Z,9.40
2017-03-20T05:45:53.574Z,9.50
2017-03-20T05:46:54.152Z,9.90
2017-03-20T05:47:54.342Z,9.40
2017-03-20T05:48:54.335Z,9.80
2017-03-20T05:49:54.356Z,9.60
2017-03-20T05:50:54.406Z,9.70
2017-03-20T05:51:54.379Z,9.80
2017-03-20T05:52:54.353Z,9.90
2017-03-20T05:53:54.426Z,9.90
2017-03-20T05:54:54.518Z,9.80
2017-03-20T05:55:54.690Z,9.70
2017-03-20T05:56:54.742Z,9.70
2017-03-20T05:57:54.759Z,9.80
2017-03-20T05:58:54.769Z,9.80
2017-03-20T05:59:54.836Z,9.80
2017-03-20T06:00:54.875Z,9.80
2017-03-20T06:01:54.967Z,9.80
2017-03-20T06:02:54.986Z,9.80
2017-03-20T06:03:55.023Z,9.80
2017-03-20T06:04:55.823Z,9.90
2017-03-20T06:05:55.861Z,9.90
2017-03-20T06:06:55.855Z,9.70
2017-03-20T06:07:55.852Z,9.70
2017-03-20T06:08:55.843Z,9.70
2017-03-20T06:09:55.922Z,9.80
2017-03-20T06:10:55.993Z,9.90
2017-03-20T06:11:56.037Z,9.80
2017-03-20T06:12:56.008Z,9.80
2017-03-20T06:13:55.988Z,9.80
2017-03-20T06:14:55.970Z,9.80
2017-03-20T06:15:56.014Z,9.70
2017-03-20T06:16:56.012Z,9.90
2017-03-20T06:17:55.995Z,9.90
2017-03-20T06:18:55.975Z,9.90
2017-03-20T06:19:56.061Z,9.80
2017-03-20T06:20:56.080Z,9.80
2017-03-20T06:21:56.081Z,9.70
2017-03-20T06:22:56.085Z,9.80
2017-03-20T06:23:56.368Z,9.80
2017-03-20T06:24:56.451Z,9.80
2017-03-20T06:25:56.510Z,9.90
2017-03-20T06:26:56.537Z,9.70
2017-03-20T06:27:56.586Z,9.70
2017-03-20T06:28:56.668Z,9.90
2017-03-20T06:29:56.720Z,9.80
2017-03-20T06:30:56.710Z,9.70
2017-03-20T06:31:56.747Z,9.90
2017-03-20T06:32:56.866Z,9.90
2017-03-20T06:33:57.725Z,9.70
2017-03-20T06:34:57.691Z,9.90
2017-03-20T06:35:57.638Z,9.90
2017-03-20T06:36:57.659Z,10.10
2017-03-20T06:37:57.682Z,10.20
2017-03-20T06:38:57.688Z,9.90
2017-03-20T06:39:57.691Z,10.00
2017-03-20T06:40:57.760Z,10.00
2017-03-20T06:41:57.827Z,10.30
2017-03-20T06:42:57.863Z,10.00
2017-03-20T06:43:57.866Z,10.20
2017-03-20T06:44:57.877Z,10.20
2017-03-20T06:45:58.761Z,10.20
2017-03-20T06:46:58.795Z,10.10
2017-03-20T06:47:58.921Z,10.10
2017-03-20T06:48:59.063Z,10.20
2017-03-20T06:49:59.115Z,10.10
2017-03-20T06:50:59.152Z,10.20
2017-03-20T06:51:59.143Z,10.20
2017-03-20T06:52:59.184Z,10.10
2017-03-20T06:53:59.226Z,10.10
2017-03-20T06:54:59.211Z,9.90
2017-03-20T06:55:59.233Z,9.80
2017-03-20T06:56:59.250Z,9.90
2017-03-20T06:57:59.242Z,10.20
2017-03-20T06:58:59.298Z,9.80
2017-03-20T06:59:59.291Z,10.20
2017-03-20T07:01:00.068Z,10.10
2017-03-20T07:02:00.109Z,9.80
2017-03-20T07:03:00.198Z,10.00
2017-03-20T07:04:00.215Z,10.00
2017-03-20T07:05:00.246Z,10.10
2017-03-20T07:06:00.257Z,10.10
2017-03-20T07:07:00.285Z,10.00
2017-03-20T07:08:00.752Z,10.00
2017-03-20T07:09:00.767Z,9.90
2017-03-20T07:10:00.826Z,9.80
2017-03-20T07:11:00.789Z,9.90
2017-03-20T07:12:01.518Z,9.90
2017-03-20T07:13:01.531Z,10.10
2017-03-20T07:14:01.630Z,10.10
2017-03-20T07:15:01.619Z,10.10
2017-03-20T07:16:01.598Z,9.80
2017-03-20T07:17:01.571Z,9.90
2017-03-20T07:18:01.600Z,9.90
2017-03-20T07:19:01.692Z,9.90
2017-03-20T07:20:02.510Z,9.70
2017-03-20T07:21:02.538Z,9.80
2017-03-20T07:22:02.590Z,10.30
2017-03-20T07:23:02.756Z,10.20
2017-03-20T07:24:02.778Z,10.00
2017-03-20T07:25:03.682Z,9.90
2017-03-20T07:26:03.698Z,10.20
2017-03-20T07:27:09.280Z,10.00
2017-03-20T07:28:12.087Z,10.20
2017-03-20T07:29:12.132Z,10.20
2017-03-20T07:30:12.283Z,10.10
2017-03-20T07:31:12.314Z,10.20
2017-03-20T07:32:12.344Z,10.00
2017-03-20T07:33:12.463Z,10.10
2017-03-20T07:34:12.464Z,10.20
2017-03-20T07:35:12.552Z,10.30
2017-03-20T07:36:12.582Z,10.20
2017-03-20T07:37:12.638Z,10.10
2017-03-20T07:38:12.812Z,10.00
2017-03-20T07:39:12.850Z,10.10
2017-03-20T07:40:12.845Z,10.20
2017-03-20T07:41:12.869Z,10.00
2017-03-20T07:42:12.942Z,10.10
2017-03-20T07:43:13.321Z,10.20
2017-03-20T07:44:13.427Z,10.20
2017-03-20T07:45:13.597Z,10.10
2017-03-20T07:46:14.213Z,10.20
2017-03-20T07:47:14.223Z,10.20
2017-03-20T07:48:14.234Z,10.10
2017-03-20T07:49:14.254Z,10.00
2017-03-20T07:50:14.243Z,10.30
2017-03-20T07:51:14.322Z,10.10
2017-03-20T07:52:14.416Z,10.20
2017-03-20T07:53:14.461Z,10.20
2017-03-20T07:54:14.487Z,10.10
2017-03-20T07:55:14.503Z,10.10
2017-03-20T07:56:14.565Z,10.10
2017-03-20T07:57:14.646Z,10.20
2017-03-20T07:58:15.014Z,10.20
2017-03-20T07:59:15.038Z,10.50
2017-03-20T08:00:15.026Z,10.30
2017-03-20T08:01:15.077Z,10.10
2017-03-20T08:02:17.615Z,10.20
2017-03-20T08:03:17.741Z,10.30
2017-03-20T08:04:17.755Z,10.10
2017-03-20T08:05:17.781Z,10.00
2017-03-20T08:06:17.814Z,10.30
2017-03-20T08:07:17.881Z,10.20
2017-03-20T08:08:17.964Z,10.20
2017-03-20T08:09:18.062Z,10.00
2017-03-20T08:10:18.109Z,10.20
2017-03-20T08:11:18.155Z,10.60
2017-03-20T08:12:18.167Z,10.20
2017-03-20T08:13:18.281Z,10.20
2017-03-20T08:14:18.410Z,10.30
2017-03-20T08:15:18.485Z,10.20
2017-03-20T08:16:18.573Z,10.10
2017-03-20T08:17:18.683Z,10.10
2017-03-20T08:18:18.766Z,10.30
2017-03-20T08:19:19.002Z,10.10
2017-03-20T08:20:20.348Z,10.20
2017-03-20T08:21:20.373Z,10.20
2017-03-20T08:22:20.406Z,10.30
2017-03-20T08:23:20.415Z,10.20
2017-03-20T08:24:20.442Z,10.00
2017-03-20T08:25:26.857Z,10.20
2017-03-20T08:26:29.761Z,10.30
2017-03-20T08:27:29.823Z,10.10
2017-03-20T08:28:29.818Z,10.10
2017-03-20T08:29:29.889Z,10.00
2017-03-20T08:30:38.742Z,10.20
2017-03-20T08:31:50.160Z,10.20
2017-03-20T08:34:05.379Z,10.30
2017-03-20T08:36:16.711Z,10.20
2017-03-20T08:37:16.727Z,10.30
2017-03-20T08:38:16.787Z,10.50
2017-03-20T08:39:16.869Z,10.30
2017-03-20T08:40:16.897Z,10.30
2017-03-20T08:41:16.892Z,10.40
2017-03-20T08:42:16.927Z,10.70
2017-03-20T08:43:16.913Z,10.40
2017-03-20T08:44:17.838Z,10.50
2017-03-20T08:45:17.807Z,10.50
2017-03-20T08:46:18.686Z,10.50
2017-03-20T08:47:18.663Z,10.50
2017-03-20T08:48:18.583Z,10.50
2017-03-20T08:49:18.677Z,10.60
2017-03-20T08:50:19.474Z,10.50
2017-03-20T08:51:19.507Z,10.50
2017-03-20T08:52:19.812Z,10.50
2017-03-20T08:53:19.766Z,10.50
2017-03-20T08:54:20.330Z,10.40
2017-03-20T08:55:21.018Z,10.40
2017-03-20T08:56:20.970Z,10.40
2017-03-20T08:57:20.926Z,10.60
2017-03-20T08:58:20.907Z,10.60
2017-03-20T08:59:20.867Z,10.60
2017-03-20T09:00:20.996Z,10.80
2017-03-20T09:01:21.173Z,10.50
2017-03-20T09:02:21.117Z,10.60
2017-03-20T09:03:21.835Z,10.70
2017-03-20T09:04:22.538Z,10.70
2017-03-20T09:05:22.518Z,10.70
2017-03-20T09:06:22.513Z,11.00
2017-03-20T09:07:22.507Z,10.80
2017-03-20T09:08:22.464Z,10.90
2017-03-20T09:09:22.464Z,11.00
2017-03-20T09:10:22.481Z,11.20
2017-03-20T09:11:22.461Z,11.10
2017-03-20T09:12:22.444Z,10.90
2017-03-20T09:13:22.380Z,10.90
2017-03-20T09:14:22.319Z,10.90
2017-03-20T09:15:22.284Z,10.80
2017-03-20T09:16:22.353Z,10.90
2017-03-20T09:17:22.340Z,11.00
2017-03-20T09:18:22.274Z,10.90
2017-03-20T09:19:22.282Z,10.90
2017-03-20T09:20:22.294Z,10.90
2017-03-20T09:21:22.263Z,11.00
2017-03-20T09:22:22.958Z,11.00
2017-03-20T09:23:22.949Z,11.10
2017-03-20T09:24:22.903Z,10.70
2017-03-20T09:25:22.926Z,10.50
2017-03-20T09:26:23.018Z,10.80
2017-03-20T09:27:22.978Z,10.70
2017-03-20T09:28:23.021Z,10.50
2017-03-20T09:29:23.722Z,10.50
2017-03-20T09:30:23.696Z,10.80
2017-03-20T09:31:23.801Z,11.00
2017-03-20T09:32:23.741Z,10.50
2017-03-20T09:33:23.704Z,10.60
2017-03-20T09:34:23.695Z,10.50
2017-03-20T09:35:23.657Z,10.30
2017-03-20T09:36:23.585Z,10.40
2017-03-20T09:37:24.285Z,10.60
2017-03-20T09:38:24.279Z,10.20
2017-03-20T09:39:24.294Z,10.20
2017-03-20T09:40:24.220Z,10.30
2017-03-20T09:41:24.918Z,10.30
2017-03-20T09:42:24.906Z,10.30
2017-03-20T09:43:24.874Z,10.30
2017-03-20T09:44:24.889Z,10.70
2017-03-20T09:45:24.811Z,10.60
2017-03-20T09:46:24.764Z,10.40
2017-03-20T09:47:24.742Z,10.50
2017-03-20T09:48:24.711Z,10.40
2017-03-20T09:49:24.686Z,10.40
2017-03-20T09:50:24.697Z,10.50
2017-03-20T09:51:25.405Z,10.60
2017-03-20T09:52:26.224Z,10.50
2017-03-20T09:53:26.239Z,10.50
2017-03-20T09:54:26.242Z,10.60
2017-03-20T09:55:26.247Z,10.60
2017-03-20T09:56:26.188Z,10.70
2017-03-20T09:57:26.176Z,10.60
2017-03-20T09:58:26.162Z,10.90
2017-03-20T09:59:26.202Z,10.90
2017-03-20T10:00:26.931Z,10.90
2017-03-20T10:01:26.974Z,10.90
2017-03-20T10:02:26.924Z,10.90
2017-03-20T10:03:26.937Z,11.20
2017-03-20T10:04:26.946Z,11.00
2017-03-20T10:05:26.986Z,11.10
2017-03-20T10:06:26.978Z,11.20
2017-03-20T10:07:26.959Z,11.00
2017-03-20T10:08:26.935Z,10.80
2017-03-20T10:09:26.902Z,10.90
2017-03-20T10:10:26.899Z,11.10
2017-03-20T10:11:27.007Z,11.10
2017-03-20T10:12:27.048Z,11.20
2017-03-20T10:13:27.079Z,11.20
2017-03-20T10:14:27.015Z,11.30
2017-03-20T10:15:27.757Z,11.30
2017-03-20T10:16:27.706Z,11.30
2017-03-20T10:17:27.645Z,11.40
2017-03-20T10:18:28.446Z,11.60
2017-03-20T10:19:28.548Z,11.70
2017-03-20T10:20:28.578Z,11.80
2017-03-20T10:21:28.545Z,12.00
2017-03-20T10:22:28.569Z,12.00
2017-03-20T10:23:28.647Z,12.10
2017-03-20T10:24:28.580Z,11.90
2017-03-20T10:25:30.458Z,12.10
2017-03-20T10:26:30.442Z,12.00
2017-03-20T10:27:30.406Z,11.90
2017-03-20T10:28:30.366Z,12.00
2017-03-20T10:29:30.349Z,11.90
2017-03-20T10:30:30.385Z,12.00
2017-03-20T10:31:30.352Z,12.00
2017-03-20T10:32:30.299Z,11.80
2017-03-20T10:33:30.327Z,11.90
2017-03-20T10:34:31.010Z,12.00
2017-03-20T10:35:31.021Z,12.00
2017-03-20T10:36:31.029Z,12.00
2017-03-20T10:37:30.989Z,12.00
2017-03-20T10:38:30.992Z,12.10
2017-03-20T10:39:30.975Z,12.10
2017-03-20T10:40:31.029Z,12.00
2017-03-20T10:41:31.083Z,12.10
2017-03-20T10:42:31.054Z,12.20
2017-03-20T10:43:31.066Z,12.30
2017-03-20T10:44:31.061Z,12.60
2017-03-20T10:45:31.116Z,12.60
2017-03-20T10:46:31.803Z,12.60
2017-03-20T10:47:31.815Z,12.60
2017-03-20T10:48:31.821Z,12.90
2017-03-20T10:49:31.790Z,13.10
2017-03-20T10:50:31.754Z,13.10
2017-03-20T10:51:32.504Z,13.50
2017-03-20T10:52:32.442Z,13.60
2017-03-20T10:53:32.436Z,13.70
2017-03-20T10:54:32.350Z,14.00
2017-03-20T10:55:32.327Z,14.00
2017-03-20T10:56:32.321Z,14.30
2017-03-20T10:57:32.265Z,14.60
2017-03-20T10:58:32.335Z,14.80
2017-03-20T10:59:33.003Z,15.00
2017-03-20T11:00:33.019Z,15.70
2017-03-20T11:01:33.030Z,16.20
2017-03-20T11:02:34.809Z,16.40
2017-03-20T11:03:34.739Z,16.30
2017-03-20T11:04:34.726Z,15.70
2017-03-20T11:05:34.684Z,15.50
2017-03-20T11:06:34.709Z,15.10
2017-03-20T11:07:35.734Z,15.10
2017-03-20T11:08:35.783Z,14.80
2017-03-20T11:09:35.759Z,14.80
2017-03-20T11:10:35.753Z,14.90
2017-03-20T11:11:35.718Z,15.20
2017-03-20T11:12:35.742Z,15.30
2017-03-20T11:13:35.683Z,15.30
2017-03-20T11:14:35.721Z,15.50
2017-03-20T11:15:35.654Z,15.40
2017-03-20T11:16:35.671Z,15.40
2017-03-20T11:17:35.636Z,15.50
2017-03-20T11:18:35.579Z,15.40
2017-03-20T11:19:35.523Z,15.30
2017-03-20T11:20:35.500Z,14.90
2017-03-20T11:21:35.492Z,14.50
2017-03-20T11:22:35.480Z,14.40
2017-03-20T11:23:35.476Z,14.50
2017-03-20T11:24:36.174Z,14.50
2017-03-20T11:25:36.149Z,14.50
2017-03-20T11:26:36.143Z,14.40
2017-03-20T11:27:37.210Z,14.40
2017-03-20T11:28:37.910Z,14.40
2017-03-20T11:29:37.903Z,14.60
2017-03-20T11:30:37.919Z,14.80
2017-03-20T11:31:37.928Z,14.80
2017-03-20T11:32:37.883Z,15.00
2017-03-20T11:33:37.849Z,15.10
2017-03-20T11:34:37.849Z,15.20
2017-03-20T11:35:37.845Z,15.30
2017-03-20T11:36:37.892Z,15.40
2017-03-20T11:37:37.857Z,15.30
2017-03-20T11:38:38.118Z,15.10
2017-03-20T11:39:38.138Z,15.00
2017-03-20T11:40:38.115Z,15.10
2017-03-20T11:41:38.105Z,15.20
2017-03-20T11:42:38.117Z,15.30
2017-03-20T11:43:38.107Z,15.30
2017-03-20T11:44:38.106Z,15.50
2017-03-20T11:45:38.150Z,15.50
2017-03-20T11:46:39.338Z,15.80
2017-03-20T11:47:39.319Z,15.60
2017-03-20T11:48:39.326Z,15.90
2017-03-20T11:49:39.290Z,16.40
2017-03-20T11:50:39.298Z,16.80
2017-03-20T11:51:39.327Z,17.00
2017-03-20T11:52:39.315Z,16.50
2017-03-20T11:53:40.135Z,16.30
2017-03-20T11:54:40.083Z,15.70
2017-03-20T11:55:40.091Z,15.60
2017-03-20T11:56:40.074Z,15.70
2017-03-20T11:57:40.047Z,15.70
2017-03-20T11:58:39.992Z,15.90
2017-03-20T11:59:39.946Z,15.90
2017-03-20T12:00:39.934Z,16.00
2017-03-20T12:01:40.014Z,15.90
2017-03-20T12:02:40.014Z,15.80
2017-03-20T12:03:39.988Z,15.50
2017-03-20T12:04:39.962Z,15.30
2017-03-20T12:05:39.935Z,15.30
2017-03-20T12:06:40.618Z,15.50
2017-03-20T12:07:40.612Z,15.30
2017-03-20T12:08:40.655Z,15.10
2017-03-20T12:09:40.584Z,15.00
2017-03-20T12:10:40.591Z,14.70
2017-03-20T12:11:40.578Z,14.70
2017-03-20T12:12:40.562Z,14.60
2017-03-20T12:13:40.490Z,14.70
2017-03-20T12:14:40.426Z,14.70
2017-03-20T12:15:40.398Z,14.70
2017-03-20T12:16:40.414Z,14.70
2017-03-20T12:17:40.382Z,14.70
2017-03-20T12:18:40.328Z,14.70
2017-03-20T12:19:41.072Z,14.60
2017-03-20T12:20:41.026Z,14.60
2017-03-20T12:21:41.060Z,14.60
2017-03-20T12:22:41.115Z,14.70
2017-03-20T12:23:41.082Z,14.70
2017-03-20T12:24:56.136Z,14.70
2017-03-20T12:26:23.729Z,14.50
2017-03-20T12:27:55.149Z,14.40
2017-03-20T12:28:55.075Z,14.40
2017-03-20T12:29:55.122Z,14.40
2017-03-20T12:30:55.110Z,14.40
2017-03-20T12:31:55.043Z,14.30
2017-03-20T12:32:55.032Z,14.30
2017-03-20T12:33:55.001Z,14.20
2017-03-20T12:34:54.993Z,14.20
2017-03-20T12:35:55.059Z,14.20
2017-03-20T12:36:55.031Z,14.20
2017-03-20T12:37:55.238Z,14.20
2017-03-20T12:38:55.209Z,14.20
2017-03-20T12:39:56.013Z,14.00
2017-03-20T12:40:56.061Z,14.30
2017-03-20T12:41:56.010Z,14.30
2017-03-20T12:42:56.028Z,14.40
2017-03-20T12:43:55.991Z,14.50
2017-03-20T12:44:55.942Z,14.70
2017-03-20T12:45:55.873Z,14.70
2017-03-20T12:46:55.801Z,14.90
2017-03-20T12:47:55.802Z,14.70
2017-03-20T12:48:55.767Z,14.70
2017-03-20T12:49:55.732Z,14.60
2017-03-20T12:50:55.673Z,14.50
2017-03-20T12:51:55.600Z,14.70
2017-03-20T12:52:55.511Z,14.70
2017-03-20T12:53:56.174Z,14.60
2017-03-20T12:54:58.632Z,14.90
2017-03-20T12:55:59.519Z,14.90
2017-03-20T12:56:59.486Z,14.80
2017-03-20T12:57:59.457Z,14.70
2017-03-20T12:58:59.397Z,14.50
2017-03-20T12:59:59.383Z,14.50
2017-03-20T13:00:59.394Z,14.40
2017-03-20T13:01:59.351Z,14.40
2017-03-20T13:02:59.290Z,14.30
2017-03-20T13:03:59.239Z,14.40
2017-03-20T13:04:59.178Z,14.40
2017-03-20T13:05:59.142Z,14.40
2017-03-20T13:06:59.151Z,14.40
2017-03-20T13:08:00.231Z,14.40
2017-03-20T13:09:00.181Z,14.40
2017-03-20T13:10:00.151Z,14.50
2017-03-20T13:11:00.106Z,14.30
2017-03-20T13:12:00.140Z,14.30
2017-03-20T13:13:00.826Z,14.30